Terminal Aerodrome Forecast
Issued by NWS Cleveland, OH

Home | Current Version | Previous Version | Graphics & Text | Print | Product List | Glossary On
Versions: 1 2 3 4 5 6 7 8 9 10 11 12 13 14 15 16 17 18 19 20 21 22 23
000
FTUS41 KCLE 262300
TAFMFD
TAF
KMFD 262338Z 2700/2724 18008KT P6SM BKN025
      TEMPO 2700/2704 SCT025
     FM270500 20004KT 4SM BR BKN012 OVC025
     FM271100 22003KT 2SM BR OVC007
     FM271600 22008KT P6SM VCTS OVC020CB=

USA.gov is the U.S. government's official web portal to all federal, state and local government web resources and services.